createdAt,value
2018-04-28T00:00:50.821Z,54.00
2018-04-28T00:04:43.976Z,54.10
2018-04-28T00:08:40.868Z,54.50
2018-04-28T00:12:35.749Z,54.50
2018-04-28T00:16:29.776Z,54.50
2018-04-28T00:20:29.127Z,55.10
2018-04-28T00:24:25.219Z,55.40
2018-04-28T00:28:30.334Z,55.60
2018-04-28T00:32:24.271Z,56.10
2018-04-28T00:36:20.981Z,56.10
2018-04-28T00:40:14.966Z,56.60
2018-04-28T00:44:21.072Z,57.20
2018-04-28T00:52:38.668Z,58.40
2018-04-28T00:56:31.831Z,59.00
2018-04-28T01:04:52.464Z,59.80
2018-04-28T01:08:45.833Z,60.20
2018-04-28T01:12:38.919Z,60.70
2018-04-28T01:16:37.085Z,60.80
2018-04-28T01:20:30.244Z,61.50
2018-04-28T01:24:25.375Z,61.30
2018-04-28T01:32:57.465Z,62.30
2018-04-28T01:36:53.195Z,63.00
2018-04-28T01:40:46.316Z,64.10
2018-04-28T01:49:04.942Z,63.70
2018-04-28T01:53:01.160Z,63.80
2018-04-28T01:57:05.983Z,64.10
2018-04-28T02:01:03.074Z,64.50
2018-04-28T02:04:58.733Z,64.80
2018-04-28T02:08:54.616Z,65.20
2018-04-28T02:12:47.849Z,65.60
2018-04-28T02:16:41.012Z,65.80
2018-04-28T02:25:03.341Z,66.40
2018-04-28T02:29:23.145Z,66.80
2018-04-28T03:22:11.865Z,67.80
2018-04-28T03:26:06.731Z,66.40
2018-04-28T03:34:34.776Z,66.60
2018-04-28T03:38:33.726Z,66.70
2018-04-28T03:42:33.540Z,67.40
2018-04-28T03:46:27.651Z,67.80
2018-04-28T03:50:26.698Z,67.70
2018-04-28T03:58:51.145Z,68.10
2018-04-28T04:02:56.371Z,68.50
2018-04-28T04:11:51.636Z,67.90
2018-04-28T04:15:49.583Z,67.90
2018-04-28T04:24:14.278Z,67.00
2018-04-28T04:28:22.927Z,67.30
2018-04-28T04:32:16.970Z,67.60
2018-04-28T04:36:16.331Z,66.00
2018-04-28T04:40:39.186Z,65.90
2018-04-28T04:44:34.174Z,65.50
2018-04-28T04:53:14.800Z,64.20
2018-04-28T04:57:30.530Z,64.20
2018-04-28T05:01:31.283Z,63.60
2018-04-28T05:05:45.951Z,63.50
2018-04-28T05:09:41.426Z,63.20
2018-04-28T05:13:43.160Z,62.20
2018-04-28T05:17:43.132Z,62.40
2018-04-28T05:21:36.968Z,61.60
2018-04-28T05:25:38.009Z,61.60
2018-04-28T05:29:41.729Z,60.60
2018-04-28T05:33:42.798Z,60.50
2018-04-28T05:37:47.792Z,59.60
2018-04-28T05:41:46.925Z,59.60
2018-04-28T05:50:07.198Z,58.90
2018-04-28T05:54:16.456Z,58.30
2018-04-28T05:58:32.271Z,58.10
2018-04-28T06:02:29.056Z,58.10
2018-04-28T06:06:37.100Z,58.10
2018-04-28T06:15:08.534Z,58.20
2018-04-28T06:19:36.354Z,57.60
2018-04-28T06:23:29.504Z,57.50
2018-04-28T06:27:22.779Z,57.40
2018-04-28T06:31:16.026Z,57.30
2018-04-28T06:35:09.124Z,57.70
2018-04-28T06:39:02.242Z,57.10
2018-04-28T06:42:55.156Z,57.60
2018-04-28T06:46:48.340Z,57.80
2018-04-28T06:50:41.505Z,58.00
2018-04-28T06:54:34.688Z,57.80
2018-04-28T06:58:27.795Z,58.20
2018-04-28T07:02:20.964Z,57.70
2018-04-28T07:06:14.076Z,56.90
2018-04-28T07:10:07.231Z,56.70
2018-04-28T07:14:11.046Z,56.10
2018-04-28T07:18:05.642Z,55.60
2018-04-28T07:21:58.782Z,54.60
2018-04-28T07:25:52.487Z,54.40
2018-04-28T07:29:49.306Z,54.50
2018-04-28T07:33:43.133Z,54.00
2018-04-28T07:37:37.555Z,53.90
2018-04-28T07:41:30.775Z,54.30
2018-04-28T07:45:27.161Z,54.10
2018-04-28T07:49:20.740Z,54.10
2018-04-28T07:53:13.924Z,54.90
2018-04-28T07:57:07.962Z,54.70
2018-04-28T08:01:01.947Z,54.70
2018-04-28T08:04:55.951Z,54.40
2018-04-28T08:08:51.006Z,53.80
2018-04-28T08:12:44.229Z,53.80
2018-04-28T08:16:37.978Z,53.60
2018-04-28T08:20:31.237Z,53.80
2018-04-28T08:24:24.503Z,53.40
2018-04-28T08:28:19.137Z,53.00
2018-04-28T08:32:13.908Z,52.90
2018-04-28T08:36:08.166Z,52.90
2018-04-28T08:40:02.106Z,53.10
2018-04-28T08:43:55.383Z,53.10
2018-04-28T08:47:48.979Z,53.00
2018-04-28T08:51:42.140Z,53.60
2018-04-28T08:55:35.330Z,53.30
2018-04-28T08:59:40.702Z,52.30
2018-04-28T09:03:34.323Z,52.80
2018-04-28T09:07:41.572Z,52.70
2018-04-28T09:11:35.451Z,52.30
2018-04-28T09:15:28.655Z,52.30
2018-04-28T09:19:22.068Z,52.50
2018-04-28T09:23:15.465Z,52.10
2018-04-28T09:27:08.703Z,51.80
2018-04-28T09:31:02.111Z,50.90
2018-04-28T09:34:55.280Z,50.40
2018-04-28T09:38:49.006Z,51.00
2018-04-28T09:42:42.299Z,53.00
2018-04-28T09:46:40.921Z,55.30
2018-04-28T09:50:34.421Z,55.00
2018-04-28T09:54:27.959Z,55.20
2018-04-28T09:58:21.339Z,55.00
2018-04-28T10:02:18.341Z,53.10
2018-04-28T10:06:11.571Z,51.80
2018-04-28T10:10:05.475Z,50.80
2018-04-28T10:13:58.703Z,50.80
2018-04-28T10:17:52.298Z,50.90
2018-04-28T10:21:45.756Z,51.20
2018-04-28T10:25:38.922Z,49.30
2018-04-28T10:29:32.103Z,48.70
2018-04-28T10:33:26.059Z,49.10
2018-04-28T10:37:19.277Z,48.40
2018-04-28T10:41:12.504Z,48.60
2018-04-28T10:45:06.001Z,48.40
2018-04-28T10:48:59.180Z,48.00
2018-04-28T10:52:52.699Z,48.00
2018-04-28T10:56:47.043Z,47.10
2018-04-28T11:00:40.720Z,47.10
2018-04-28T11:04:33.968Z,46.90
2018-04-28T11:08:27.255Z,47.20
2018-04-28T11:12:20.550Z,47.50
2018-04-28T11:16:14.839Z,47.50
2018-04-28T11:20:08.060Z,48.70
2018-04-28T11:24:01.409Z,49.80
2018-04-28T11:27:54.543Z,49.50
2018-04-28T11:31:48.557Z,49.20
2018-04-28T11:35:42.500Z,47.90
2018-04-28T11:39:49.703Z,47.90
2018-04-28T11:43:43.259Z,47.30
2018-04-28T11:47:36.452Z,45.40
2018-04-28T11:51:30.718Z,45.60
2018-04-28T11:55:24.007Z,45.50
2018-04-28T11:59:17.978Z,45.20
2018-04-28T12:03:11.262Z,44.40
2018-04-28T12:07:04.445Z,43.60
2018-04-28T12:10:57.989Z,43.50
2018-04-28T12:14:51.965Z,41.20
2018-04-28T12:18:45.365Z,41.80
2018-04-28T12:22:38.590Z,40.90
2018-04-28T12:26:31.976Z,41.60
2018-04-28T12:30:25.143Z,41.30
2018-04-28T12:34:18.307Z,42.50
2018-04-28T12:38:12.515Z,43.10
2018-04-28T12:42:05.785Z,42.70
2018-04-28T12:45:58.921Z,41.60
2018-04-28T12:49:52.100Z,40.90
2018-04-28T12:53:45.232Z,40.40
2018-04-28T12:57:38.597Z,40.50
2018-04-28T13:01:31.849Z,40.50
2018-04-28T13:05:26.831Z,41.00
2018-04-28T13:09:20.239Z,40.10
2018-04-28T13:13:13.407Z,40.30
2018-04-28T13:17:06.551Z,39.80
2018-04-28T13:21:01.355Z,38.70
2018-04-28T13:24:55.663Z,38.10
2018-04-28T13:28:48.776Z,38.40
2018-04-28T13:32:42.676Z,40.20
2018-04-28T13:36:35.619Z,40.20
2018-04-28T13:40:28.787Z,41.30
2018-04-28T13:44:23.117Z,40.70
2018-04-28T13:48:16.803Z,40.60
2018-04-28T13:52:10.594Z,40.80
2018-04-28T13:56:05.232Z,41.00
2018-04-28T14:00:00.321Z,39.80
2018-04-28T14:03:53.685Z,39.10
2018-04-28T14:07:47.362Z,39.10
2018-04-28T14:11:41.884Z,38.40
2018-04-28T14:15:35.429Z,38.70
2018-04-28T14:19:30.334Z,38.50
2018-04-28T14:23:25.445Z,38.50
2018-04-28T14:27:19.634Z,38.40
2018-04-28T14:31:13.930Z,39.30
2018-04-28T14:35:07.396Z,39.20
2018-04-28T14:39:00.654Z,39.10
2018-04-28T14:46:51.526Z,39.60
2018-04-28T14:50:45.493Z,40.10
2018-04-28T14:54:38.683Z,39.50
2018-04-28T14:58:32.568Z,38.80
2018-04-28T15:02:25.839Z,38.60
2018-04-28T15:06:19.833Z,38.90
2018-04-28T15:10:13.807Z,39.20
2018-04-28T15:14:07.779Z,39.80
2018-04-28T15:18:01.378Z,39.70
2018-04-28T15:21:55.692Z,41.00
2018-04-28T15:25:49.371Z,41.20
2018-04-28T15:29:42.832Z,40.70
2018-04-28T15:38:01.824Z,40.80
2018-04-28T15:41:54.953Z,40.40
2018-04-28T15:45:49.206Z,40.40
2018-04-28T15:49:42.537Z,40.40
2018-04-28T15:53:50.224Z,40.70
2018-04-28T15:57:44.013Z,41.20
2018-04-28T16:01:37.144Z,40.90
2018-04-28T16:05:30.336Z,40.90
2018-04-28T16:09:23.650Z,40.90
2018-04-28T16:13:17.494Z,41.10
2018-04-28T16:17:11.174Z,41.10
2018-04-28T16:21:05.414Z,41.40
2018-04-28T16:24:59.100Z,41.50
2018-04-28T16:28:52.426Z,41.80
2018-04-28T16:32:47.675Z,42.20
2018-04-28T16:36:40.055Z,41.30
2018-04-28T16:40:34.344Z,41.60
2018-04-28T16:44:27.476Z,42.40
2018-04-28T16:48:20.631Z,43.20
2018-04-28T16:52:14.075Z,43.30
2018-04-28T16:56:07.214Z,43.70
2018-04-28T17:00:00.663Z,44.00
2018-04-28T17:03:54.578Z,44.20
2018-04-28T17:07:48.626Z,44.90
2018-04-28T17:11:41.764Z,45.00
2018-04-28T17:15:35.088Z,45.10
2018-04-28T17:19:29.069Z,45.40
2018-04-28T17:23:22.950Z,45.50
2018-04-28T17:31:14.400Z,45.30
2018-04-28T17:35:07.530Z,45.60
2018-04-28T17:39:00.565Z,45.70
2018-04-28T17:42:53.734Z,45.50
2018-04-28T17:46:47.060Z,45.60
2018-04-28T17:50:44.174Z,45.70
2018-04-28T17:54:37.394Z,46.50
2018-04-28T17:58:31.069Z,46.30
2018-04-28T18:02:25.106Z,47.00
2018-04-28T18:06:18.440Z,46.90
2018-04-28T18:10:11.616Z,47.00
2018-04-28T18:14:04.980Z,47.50
2018-04-28T18:17:58.296Z,48.20
2018-04-28T18:21:51.690Z,49.20
2018-04-28T18:25:45.753Z,51.30
2018-04-28T18:29:38.988Z,51.10
2018-04-28T18:33:33.604Z,49.70
2018-04-28T18:37:28.117Z,49.70
2018-04-28T18:41:22.544Z,49.80
2018-04-28T18:45:18.786Z,49.80
2018-04-28T18:49:14.599Z,49.60
2018-04-28T18:53:08.671Z,49.50
2018-04-28T18:57:01.876Z,49.50
2018-04-28T19:00:55.238Z,50.30
2018-04-28T19:04:48.397Z,51.40
2018-04-28T19:08:41.702Z,52.30
2018-04-28T19:12:34.824Z,54.30
2018-04-28T19:16:28.131Z,53.30
2018-04-28T19:20:21.343Z,54.20
2018-04-28T19:24:15.265Z,55.00
2018-04-28T19:28:08.502Z,55.00
2018-04-28T19:32:02.459Z,55.60
2018-04-28T19:35:56.407Z,56.20
2018-04-28T19:39:49.387Z,56.20
2018-04-28T19:43:42.551Z,55.70
2018-04-28T19:47:35.889Z,55.40
2018-04-28T19:51:30.861Z,54.10
2018-04-28T19:55:24.058Z,54.20
2018-04-28T19:59:17.301Z,53.40
2018-04-28T20:03:11.164Z,51.90
2018-04-28T20:07:04.352Z,52.00
2018-04-28T20:15:03.397Z,50.60
2018-04-28T20:18:56.571Z,51.00
2018-04-28T20:23:01.762Z,51.00
2018-04-28T20:26:54.922Z,51.10
2018-04-28T20:30:48.879Z,51.70
2018-04-28T20:34:42.968Z,51.70
2018-04-28T20:38:36.249Z,52.00
2018-04-28T20:42:29.108Z,52.00
2018-04-28T20:46:22.478Z,51.00
2018-04-28T20:50:15.626Z,51.50
2018-04-28T20:54:08.786Z,52.10
2018-04-28T20:58:02.102Z,52.20
2018-04-28T21:01:55.362Z,52.50
2018-04-28T21:05:48.538Z,53.90
2018-04-28T21:09:42.470Z,54.00
2018-04-28T21:13:48.058Z,54.00
2018-04-28T21:17:41.187Z,53.90
2018-04-28T21:21:34.550Z,54.00
2018-04-28T21:25:29.453Z,53.90
2018-04-28T21:29:22.601Z,54.90
2018-04-28T21:33:15.777Z,54.40
2018-04-28T21:37:09.386Z,54.30
2018-04-28T21:41:02.320Z,54.20
2018-04-28T21:44:55.476Z,54.30
2018-04-28T21:48:49.717Z,54.50
2018-04-28T21:52:42.898Z,54.50
2018-04-28T21:56:36.054Z,54.00
2018-04-28T22:00:29.739Z,53.70
2018-04-28T22:04:22.991Z,53.80
2018-04-28T22:08:16.116Z,54.40
2018-04-28T22:12:10.208Z,54.70
2018-04-28T22:16:04.110Z,55.50
2018-04-28T22:19:57.219Z,55.50
2018-04-28T22:23:50.578Z,55.50
2018-04-28T22:27:43.707Z,55.60
2018-04-28T22:31:37.796Z,56.00
2018-04-28T22:35:35.390Z,55.90
2018-04-28T22:39:28.577Z,56.10
2018-04-28T22:43:21.775Z,56.10
2018-04-28T22:47:15.111Z,56.10
2018-04-28T22:51:09.011Z,56.40
2018-04-28T22:55:02.142Z,56.90
2018-04-28T22:58:55.892Z,57.00
2018-04-28T23:02:49.446Z,56.00
2018-04-28T23:06:42.840Z,55.80
2018-04-28T23:10:35.843Z,56.00
2018-04-28T23:14:29.756Z,56.40
2018-04-28T23:18:22.986Z,56.40
2018-04-28T23:22:17.320Z,57.10
2018-04-28T23:26:10.548Z,57.20
2018-04-28T23:30:03.852Z,58.10
2018-04-28T23:33:57.926Z,59.80
2018-04-28T23:37:50.807Z,59.80
2018-04-28T23:45:43.466Z,60.90
2018-04-28T23:54:01.369Z,61.60
2018-04-28T23:57:54.557Z,62.40
